sensor_id;sensor_type;location;lat;lon;timestamp;pressure;altitude;pressure_sealevel;temperature;humidity
69593;BME280;56796;50.122;14.468;2022-10-26T00:07:30;982.84;;;10.38;100
69593;BME280;56796;50.122;14.468;2022-10-26T00:26:55;982.91;;;10.14;100
69593;BME280;56796;50.122;14.468;2022-10-26T00:46:21;983;;;10;100
69593;BME280;56796;50.122;14.468;2022-10-26T01:05:48;982.93;;;9.85;100
69593;BME280;56796;50.122;14.468;2022-10-26T01:25:14;982.83;;;9.72;100
69593;BME280;56796;50.122;14.468;2022-10-26T01:44:38;982.75;;;9.6;100
69593;BME280;56796;50.122;14.468;2022-10-26T02:04:06;982.61;;;9.52;100
69593;BME280;56796;50.122;14.468;2022-10-26T02:23:34;982.6;;;9.41;100
69593;BME280;56796;50.122;14.468;2022-10-26T02:42:59;982.6;;;9.39;100
69593;BME280;56796;50.122;14.468;2022-10-26T03:02:23;982.56;;;9.32;100
69593;BME280;56796;50.122;14.468;2022-10-26T03:21:50;982.58;;;9.26;100
69593;BME280;56796;50.122;14.468;2022-10-26T03:41:17;982.51;;;9.18;100
69593;BME280;56796;50.122;14.468;2022-10-26T04:00:44;982.63;;;9.14;100
69593;BME280;56796;50.122;14.468;2022-10-26T04:20:10;982.73;;;9.03;100
69593;BME280;56796;50.122;14.468;2022-10-26T04:39:36;982.92;;;8.62;100
69593;BME280;56796;50.122;14.468;2022-10-26T04:59:06;982.85;;;8.39;100
69593;BME280;56796;50.122;14.468;2022-10-26T05:18:30;982.89;;;8.28;100
69593;BME280;56796;50.122;14.468;2022-10-26T05:37:56;982.96;;;8.26;100
69593;BME280;56796;50.122;14.468;2022-10-26T05:57:24;983.06;;;8.87;100
69593;BME280;56796;50.122;14.468;2022-10-26T06:16:58;983.21;;;9.68;100
69593;BME280;56796;50.122;14.468;2022-10-26T06:36:19;983.26;;;9.97;100
69593;BME280;56796;50.122;14.468;2022-10-26T06:55:44;983.34;;;9.97;100
69593;BME280;56796;50.122;14.468;2022-10-26T07:15:16;983.41;;;12.53;94.93
69593;BME280;56796;50.122;14.468;2022-10-26T07:34:50;983.52;;;15.66;82.9
69593;BME280;56796;50.122;14.468;2022-10-26T07:54:26;983.65;;;16.49;73.66
69593;BME280;56796;50.122;14.468;2022-10-26T08:13:50;983.84;;;13.34;82.68
69593;BME280;56796;50.122;14.468;2022-10-26T08:33:12;983.96;;;12.65;86.03
69593;BME280;56796;50.122;14.468;2022-10-26T08:52:35;983.97;;;12.52;87.7
69593;BME280;56796;50.122;14.468;2022-10-26T09:12:05;983.98;;;12.87;88.17
69593;BME280;56796;50.122;14.468;2022-10-26T09:31:29;984.06;;;13.67;86.13
69593;BME280;56796;50.122;14.468;2022-10-26T09:50:59;984.2;;;14.81;81.53
69593;BME280;56796;50.122;14.468;2022-10-26T10:10:25;984.13;;;13.77;84.74
69593;BME280;56796;50.122;14.468;2022-10-26T10:29:50;984.11;;;13.97;85.97
69593;BME280;56796;50.122;14.468;2022-10-26T10:49:16;984.04;;;13.99;86.26
69593;BME280;56796;50.122;14.468;2022-10-26T11:08:43;983.67;;;13.62;88.83
69593;BME280;56796;50.122;14.468;2022-10-26T11:28:10;983.89;;;13.6;91.12
69593;BME280;56796;50.122;14.468;2022-10-26T11:47:33;984.2;;;13.7;90.8
69593;BME280;56796;50.122;14.468;2022-10-26T12:07:02;984.15;;;14.21;88.05
69593;BME280;56796;50.122;14.468;2022-10-26T13:05:28;983.96;;;14.38;88.95
69593;BME280;56796;50.122;14.468;2022-10-26T13:24:35;983.95;;;14.53;89.58
69593;BME280;56796;50.122;14.468;2022-10-26T13:44:02;984.13;;;14.58;88.83
69593;BME280;56796;50.122;14.468;2022-10-26T14:03:27;984.09;;;14.57;90.07
69593;BME280;56796;50.122;14.468;2022-10-26T14:22:53;984.3;;;14.33;89.63
69593;BME280;56796;50.122;14.468;2022-10-26T14:42:22;984.39;;;14.34;89.14
69593;BME280;56796;50.122;14.468;2022-10-26T15:01:46;984.59;;;14.17;89.95
69593;BME280;56796;50.122;14.468;2022-10-26T15:21:18;984.65;;;13.96;91.92
69593;BME280;56796;50.122;14.468;2022-10-26T15:40:41;984.65;;;13.86;92.38
69593;BME280;56796;50.122;14.468;2022-10-26T16:00:12;984.61;;;13.69;92.63
69593;BME280;56796;50.122;14.468;2022-10-26T16:19:32;984.77;;;13.63;92.11
69593;BME280;56796;50.122;14.468;2022-10-26T16:38:57;984.89;;;13.56;91.93
69593;BME280;56796;50.122;14.468;2022-10-26T16:58:26;985.21;;;13.54;91.72
69593;BME280;56796;50.122;14.468;2022-10-26T17:17:51;985.2;;;13.46;92.02
69593;BME280;56796;50.122;14.468;2022-10-26T17:37:16;985.46;;;13.35;92.91
69593;BME280;56796;50.122;14.468;2022-10-26T17:56:41;985.63;;;13.29;93.53
69593;BME280;56796;50.122;14.468;2022-10-26T18:16:08;985.98;;;13.13;94.54
69593;BME280;56796;50.122;14.468;2022-10-26T18:35:34;986.04;;;12.94;95.2
69593;BME280;56796;50.122;14.468;2022-10-26T18:55:06;986.08;;;12.86;96.23
69593;BME280;56796;50.122;14.468;2022-10-26T19:14:25;986.24;;;12.79;97.03
69593;BME280;56796;50.122;14.468;2022-10-26T19:33:46;986.43;;;12.79;97.14
69593;BME280;56796;50.122;14.468;2022-10-26T19:53:14;986.69;;;12.57;98.49
69593;BME280;56796;50.122;14.468;2022-10-26T20:12:38;986.9;;;12.39;99.98
69593;BME280;56796;50.122;14.468;2022-10-26T20:32:04;986.93;;;12.23;100
69593;BME280;56796;50.122;14.468;2022-10-26T20:51:36;987.15;;;12.07;100
69593;BME280;56796;50.122;14.468;2022-10-26T21:10:56;987.35;;;11.77;100
69593;BME280;56796;50.122;14.468;2022-10-26T21:30:22;987.47;;;11.78;100
69593;BME280;56796;50.122;14.468;2022-10-26T21:49:49;987.54;;;11.77;100
69593;BME280;56796;50.122;14.468;2022-10-26T22:09:14;987.66;;;11.67;100
69593;BME280;56796;50.122;14.468;2022-10-26T22:28:46;987.71;;;11.39;100
69593;BME280;56796;50.122;14.468;2022-10-26T22:48:04;987.78;;;11.29;100
69593;BME280;56796;50.122;14.468;2022-10-26T23:07:31;987.86;;;11.66;100
69593;BME280;56796;50.122;14.468;2022-10-26T23:26:59;988.12;;;11.52;100
69593;BME280;56796;50.122;14.468;2022-10-26T23:46:24;988.15;;;11.33;100
